Date,TemperatureHighF,TemperatureAvgF,TemperatureLowF,DewpointHighF,DewpointAvgF,DewpointLowF,HumidityHigh,HumidityAvg,HumidityLow,PressureMaxIn,PressureMinIn,WindSpeedMaxMPH,WindSpeedAvgMPH,GustSpeedMaxMPH,PrecipitationSumIn
2013-6-1,95,84,76,75,72,71,84,69,48,29.81,29.69,26,6,26,0.00
2013-6-2,91,79,68,73,65,57,90,65,35,29.99,29.81,22,2,22,0.08
2013-6-3,96,79,64,67,63,59,92,62,31,29.92,29.74,13,1,13,0.00
2013-6-4,94,82,71,68,67,64,89,62,39,29.82,29.69,17,3,17,0.00
2013-6-5,92,82,71,70,67,64,87,63,41,29.81,29.65,20,3,23,0.00
2013-6-6,99,83,72,71,67,63,89,61,36,29.85,29.68,21,2,21,0.00
2013-6-7,88,78,69,65,60,53,83,58,32,29.93,29.79,12,1,12,0.00
2013-6-8,91,78,63,71,63,54,88,63,45,29.86,29.70,19,2,19,0.00
2013-6-9,89,80,67,72,70,64,94,74,54,29.90,29.75,20,2,20,0.66
2013-6-10,95,83,71,73,69,61,91,66,35,29.92,29.81,15,2,15,0.00
2013-6-11,94,82,75,72,71,64,89,70,45,29.94,29.85,22,3,22,0.00
2013-6-12,96,83,75,74,72,69,88,70,44,29.97,29.85,18,3,18,0.00
2013-6-13,96,82,76,74,71,65,88,70,46,29.98,29.85,25,2,25,0.00
2013-6-14,92,82,75,75,73,70,89,75,52,29.92,29.82,13,1,13,0.00
2013-6-15,90,83,77,76,73,71,88,74,57,29.91,29.81,13,0,13,0.00
2013-6-16,97,83,75,74,71,66,88,69,38,29.93,29.80,21,2,25,0.00
2013-6-17,98,86,77,74,70,66,83,62,38,29.92,29.75,19,3,19,0.00
2013-6-18,95,82,70,77,72,67,94,71,49,29.94,29.78,16,1,17,0.32
2013-6-19,96,86,76,72,70,66,87,63,42,29.89,29.80,25,2,25,0.00
2013-6-20,96,86,75,72,69,65,86,61,38,29.97,29.84,21,5,21,0.00
2013-6-21,97,86,76,73,69,63,85,59,35,29.99,29.86,24,5,24,0.00
2013-6-22,96,86,76,72,69,64,86,60,36,29.96,29.78,20,5,21,0.00
2013-6-23,94,84,76,72,68,59,85,59,36,29.89,29.79,21,5,24,0.00
2013-6-24,98,85,76,73,70,66,84,62,38,29.94,29.79,23,6,24,0.00
2013-6-25,94,82,77,72,71,67,84,71,41,29.91,29.85,23,7,25,0.00
2013-6-26,101,89,77,73,70,65,81,55,34,29.88,29.76,23,6,23,0.00
2013-6-27,103,88,76,72,67,59,83,55,27,29.95,29.79,21,2,21,0.00
2013-6-28,108,91,76,72,68,64,82,51,27,29.91,29.69,12,1,12,0.00
2013-6-29,108,90,75,72,67,61,75,50,23,29.78,29.64,17,1,17,0.00
2013-6-30,96,87,71,72,68,63,88,54,37,29.87,29.73,12,2,12,0.13